Gales Addition, Washington
Current Conditions -  °F | °C
As of 2:53 PM on Thursday 20 Nov 2014 (Local Time) from KCLM Reporting Station
Overcast Overcast  
Wind Chill: 50°   Ceiling: 7500
Heat Index: 50°   Visibility: 10mi
Dew Point: 44°   Wind: 0mph
Humidity: 80%   Direction: NA
Pressure: 29.9"   Gusts: NA
Location:  48.0203°N, 123.478°W
Report Text: KCLM 202253Z AUTO 00000KT 10SM SCT055 BKN075 OVC090 10/07 A2990 RMK AO2 SLP128 T01000067
Loading
Personal Weather Stations






























Interactive Weather Map New forecast layout! Learn more

10-Day Weather Forecast

Advertisements
Track Severe Weather on mobile